createdAt,value
2019-05-30T00:01:22.041Z,4.03
2019-05-30T00:03:52.399Z,3.17
2019-05-30T00:06:22.785Z,3.53
2019-05-30T00:08:54.331Z,3.70
2019-05-30T00:11:24.934Z,3.53
2019-05-30T00:13:56.684Z,2.93
2019-05-30T00:16:27.505Z,3.50
2019-05-30T00:18:58.729Z,3.10
2019-05-30T00:21:29.143Z,3.33
2019-05-30T00:23:59.947Z,3.60
2019-05-30T00:26:30.406Z,2.97
2019-05-30T00:29:02.552Z,3.67
2019-05-30T00:31:33.160Z,3.77
2019-05-30T00:34:04.234Z,3.50
2019-05-30T00:39:06.560Z,3.03
2019-05-30T00:41:37.009Z,3.10
2019-05-30T00:44:07.931Z,3.03
2019-05-30T00:46:38.664Z,3.17
2019-05-30T00:49:08.936Z,3.40
2019-05-30T00:51:39.664Z,3.50
2019-05-30T00:54:10.450Z,3.67
2019-05-30T00:56:40.762Z,3.30
2019-05-30T00:59:11.078Z,2.97
2019-05-30T01:01:41.790Z,3.23
2019-05-30T01:04:12.103Z,3.97
2019-05-30T01:06:42.431Z,3.73
2019-05-30T01:09:12.905Z,2.93
2019-05-30T01:11:43.408Z,3.30
2019-05-30T01:14:14.083Z,3.10
2019-05-30T01:16:44.511Z,3.27
2019-05-30T01:19:14.860Z,3.27
2019-05-30T01:21:45.892Z,3.10
2019-05-30T01:24:16.182Z,4.00
2019-05-30T01:26:46.565Z,4.17
2019-05-30T01:29:17.269Z,3.20
2019-05-30T01:31:47.655Z,3.27
2019-05-30T01:34:17.940Z,4.30
2019-05-30T01:36:48.544Z,4.27
2019-05-30T01:39:19.256Z,4.27
2019-05-30T01:41:49.816Z,3.97
2019-05-30T01:44:20.243Z,3.83
2019-05-30T01:46:50.745Z,4.00
2019-05-30T01:49:21.394Z,4.83
2019-05-30T01:51:51.782Z,4.53
2019-05-30T01:54:22.375Z,3.60
2019-05-30T01:56:53.150Z,3.97
2019-05-30T01:59:24.872Z,4.27
2019-05-30T02:01:55.369Z,3.87
2019-05-30T02:04:26.040Z,3.93
2019-05-30T02:06:56.744Z,3.83
2019-05-30T02:09:27.023Z,4.03
2019-05-30T02:11:57.386Z,3.73
2019-05-30T02:14:27.719Z,4.03
2019-05-30T02:16:59.601Z,4.30
2019-05-30T02:19:30.255Z,3.30
2019-05-30T02:22:01.663Z,3.97
2019-05-30T02:24:33.293Z,2.53
2019-05-30T02:27:06.255Z,3.37
2019-05-30T02:29:36.620Z,4.57
2019-05-30T02:32:07.667Z,3.37
2019-05-30T02:34:39.744Z,3.87
2019-05-30T02:37:10.898Z,4.03
2019-05-30T02:39:42.109Z,3.97
2019-05-30T02:42:12.857Z,3.87
2019-05-30T02:44:43.206Z,4.43
2019-05-30T02:47:13.476Z,4.37
2019-05-30T02:49:44.201Z,4.77
2019-05-30T02:52:14.838Z,3.93
2019-05-30T02:54:45.171Z,3.30
2019-05-30T02:57:15.855Z,4.17
2019-05-30T02:59:46.619Z,4.07
2019-05-30T03:02:17.904Z,4.33
2019-05-30T03:04:48.703Z,4.07
2019-05-30T03:07:19.765Z,4.57
2019-05-30T03:09:50.467Z,3.50
2019-05-30T03:12:21.221Z,3.00
2019-05-30T03:14:52.079Z,2.97
2019-05-30T03:17:22.354Z,3.47
2019-05-30T03:19:52.894Z,3.60
2019-05-30T03:22:23.268Z,3.80
2019-05-30T03:24:54.056Z,4.43
2019-05-30T03:27:24.822Z,5.37
2019-05-30T03:29:55.337Z,4.20
2019-05-30T03:34:58.505Z,3.40
2019-05-30T03:37:30.526Z,3.73
2019-05-30T03:40:00.813Z,3.90
2019-05-30T03:42:31.242Z,3.30
2019-05-30T03:45:01.683Z,4.33
2019-05-30T03:47:35.006Z,4.77
2019-05-30T03:50:07.327Z,3.23
2019-05-30T03:52:38.529Z,3.50
2019-05-30T03:55:11.894Z,3.77
2019-05-30T03:57:46.263Z,3.90
2019-05-30T04:00:27.876Z,3.77
2019-05-30T04:03:15.608Z,2.87
2019-05-30T04:05:50.873Z,2.73
2019-05-30T04:08:23.189Z,3.70
2019-05-30T04:10:56.602Z,2.80
2019-05-30T04:13:36.297Z,2.80
2019-05-30T04:16:06.990Z,4.10
2019-05-30T04:18:38.661Z,3.40
2019-05-30T04:21:11.510Z,3.30
2019-05-30T04:23:41.565Z,3.30
2019-05-30T04:26:13.480Z,3.33
2019-05-30T04:28:44.089Z,5.40
2019-05-30T04:31:17.111Z,3.17
2019-05-30T04:33:48.173Z,3.83
2019-05-30T04:36:19.121Z,3.60
2019-05-30T04:38:50.016Z,4.40
2019-05-30T04:41:21.059Z,3.50
2019-05-30T04:43:51.535Z,3.23
2019-05-30T04:46:22.201Z,3.23
2019-05-30T04:48:52.642Z,2.87
2019-05-30T04:51:23.032Z,4.97
2019-05-30T04:53:53.520Z,3.37
2019-05-30T04:56:23.864Z,3.40
2019-05-30T04:58:55.560Z,3.60
2019-05-30T05:01:26.300Z,3.07
2019-05-30T05:03:56.639Z,3.70
2019-05-30T05:06:27.232Z,4.97
2019-05-30T05:08:57.929Z,2.73
2019-05-30T05:11:28.218Z,3.43
2019-05-30T05:13:58.618Z,2.87
2019-05-30T05:16:35.392Z,4.13
2019-05-30T05:19:01.450Z,3.07
2019-05-30T05:21:31.849Z,3.50
2019-05-30T05:24:02.622Z,3.80
2019-05-30T05:26:32.963Z,3.10
2019-05-30T05:29:03.757Z,2.93
2019-05-30T05:31:34.061Z,3.20
2019-05-30T05:34:04.646Z,3.10
2019-05-30T05:36:35.359Z,2.90
2019-05-30T05:39:07.417Z,2.60
2019-05-30T05:41:37.751Z,2.70
2019-05-30T05:44:08.509Z,3.40
2019-05-30T05:46:38.829Z,3.33
2019-05-30T05:49:09.102Z,3.27
2019-05-30T05:51:39.767Z,3.03
2019-05-30T05:54:10.170Z,3.10
2019-05-30T05:56:40.530Z,3.37
2019-05-30T05:59:11.302Z,2.90
2019-05-30T06:01:42.554Z,2.57
2019-05-30T06:04:13.858Z,2.50
2019-05-30T06:06:44.436Z,3.70
2019-05-30T06:09:14.877Z,3.00
2019-05-30T06:11:48.852Z,3.43
2019-05-30T06:14:17.840Z,3.27
2019-05-30T06:16:48.102Z,3.47
2019-05-30T06:19:19.112Z,2.97
2019-05-30T06:21:53.879Z,2.87
2019-05-30T06:24:22.100Z,2.87
2019-05-30T06:26:52.592Z,2.90
2019-05-30T06:29:24.114Z,2.60
2019-05-30T06:31:54.632Z,2.50
2019-05-30T06:34:36.015Z,3.03
2019-05-30T06:36:58.060Z,3.17
2019-05-30T06:39:29.699Z,2.87
2019-05-30T06:42:00.245Z,2.87
2019-05-30T06:44:30.561Z,3.60
2019-05-30T06:47:01.038Z,3.17
2019-05-30T06:49:31.828Z,3.10
2019-05-30T06:52:02.112Z,2.77
2019-05-30T06:54:33.726Z,2.57
2019-05-30T06:57:04.589Z,3.57
2019-05-30T06:59:34.921Z,3.13
2019-05-30T07:02:05.375Z,4.40
2019-05-30T07:04:51.119Z,3.00
2019-05-30T07:07:08.254Z,3.37
2019-05-30T07:09:38.851Z,3.00
2019-05-30T07:12:11.873Z,2.83
2019-05-30T07:14:41.642Z,2.73
2019-05-30T07:17:11.967Z,2.90
2019-05-30T07:19:42.730Z,3.80
2019-05-30T07:22:13.210Z,3.10
2019-05-30T07:24:43.545Z,2.97
2019-05-30T07:27:15.386Z,2.90
2019-05-30T07:29:46.012Z,3.10
2019-05-30T07:32:16.374Z,2.73
2019-05-30T07:34:46.753Z,3.60
2019-05-30T07:37:17.272Z,2.83
2019-05-30T07:39:48.092Z,2.80
2019-05-30T07:42:18.491Z,2.80
2019-05-30T07:44:48.802Z,3.27
2019-05-30T07:47:20.537Z,2.43
2019-05-30T07:49:52.092Z,2.60
2019-05-30T07:52:22.358Z,2.63
2019-05-30T07:54:52.792Z,3.10
2019-05-30T07:57:23.496Z,3.03
2019-05-30T07:59:53.849Z,3.80
2019-05-30T08:02:24.130Z,2.57
2019-05-30T08:04:54.834Z,2.63
2019-05-30T08:07:25.097Z,2.47
2019-05-30T08:09:55.865Z,2.77
2019-05-30T08:12:26.238Z,2.80
2019-05-30T08:14:56.735Z,2.90
2019-05-30T08:17:27.366Z,3.10
2019-05-30T08:19:57.743Z,3.23
2019-05-30T08:22:28.067Z,5.10
2019-05-30T08:24:58.932Z,2.97
2019-05-30T08:27:30.160Z,3.43
2019-05-30T08:30:00.723Z,2.77
2019-05-30T08:32:32.463Z,3.20
2019-05-30T08:35:03.218Z,3.23
2019-05-30T08:37:33.508Z,2.93
2019-05-30T08:40:06.088Z,3.13
2019-05-30T08:42:38.198Z,2.98
2019-05-30T08:45:10.621Z,3.17
2019-05-30T08:47:40.957Z,2.75
2019-05-30T08:50:12.079Z,3.00
2019-05-30T08:52:42.824Z,3.20
2019-05-30T08:55:13.887Z,2.60
2019-05-30T08:57:44.183Z,3.17
2019-05-30T09:00:16.560Z,2.63
2019-05-30T09:02:47.213Z,2.85
2019-05-30T09:05:18.709Z,2.95
2019-05-30T09:07:50.265Z,3.13
2019-05-30T09:10:21.407Z,3.77
2019-05-30T09:12:52.710Z,2.87
2019-05-30T09:15:23.446Z,3.73
2019-05-30T09:17:53.732Z,3.27
2019-05-30T09:20:24.927Z,3.07
2019-05-30T09:22:55.662Z,3.17
2019-05-30T09:25:26.675Z,3.13
2019-05-30T09:27:57.411Z,2.97
2019-05-30T09:30:29.322Z,3.03
2019-05-30T09:32:59.612Z,3.87
2019-05-30T09:35:30.157Z,3.35
2019-05-30T09:38:00.885Z,3.33
2019-05-30T09:40:34.106Z,3.40
2019-05-30T09:43:04.790Z,3.85
2019-05-30T09:45:35.176Z,3.62
2019-05-30T09:48:05.764Z,2.77
2019-05-30T09:50:37.365Z,3.05
2019-05-30T09:53:07.678Z,2.83
2019-05-30T09:55:38.150Z,2.85
2019-05-30T09:58:08.935Z,2.98
2019-05-30T10:00:39.700Z,3.65
2019-05-30T10:03:10.181Z,3.02
2019-05-30T10:05:40.772Z,4.10
2019-05-30T10:08:11.057Z,3.65
2019-05-30T10:10:41.445Z,3.83
2019-05-30T10:13:12.162Z,2.58
2019-05-30T10:15:42.550Z,3.08
2019-05-30T10:18:12.988Z,3.02
2019-05-30T10:20:44.433Z,3.17
2019-05-30T10:23:15.285Z,2.42
2019-05-30T10:25:46.628Z,3.17
2019-05-30T10:28:18.142Z,2.72
2019-05-30T10:30:53.672Z,3.00
2019-05-30T10:33:20.765Z,3.40
2019-05-30T10:35:51.852Z,3.83
2019-05-30T10:38:23.429Z,3.02
2019-05-30T10:40:54.143Z,3.70
2019-05-30T10:43:24.542Z,3.40
2019-05-30T10:45:54.822Z,3.35
2019-05-30T10:48:25.625Z,6.37
2019-05-30T10:50:56.458Z,3.20
2019-05-30T10:53:27.351Z,3.12
2019-05-30T10:55:58.016Z,5.95
2019-05-30T10:58:28.388Z,4.30
2019-05-30T11:00:59.431Z,3.10
2019-05-30T11:03:30.164Z,3.47
2019-05-30T11:06:10.093Z,3.08
2019-05-30T11:08:43.378Z,3.27
2019-05-30T11:11:13.738Z,6.15
2019-05-30T11:13:44.052Z,3.47
2019-05-30T11:16:14.367Z,3.85
2019-05-30T11:18:45.123Z,5.33
2019-05-30T11:21:15.413Z,4.62
2019-05-30T11:23:45.745Z,3.08
2019-05-30T11:26:17.842Z,3.08
2019-05-30T11:28:48.578Z,3.45
2019-05-30T11:31:18.946Z,3.72
2019-05-30T11:33:50.770Z,4.35
2019-05-30T11:36:21.441Z,4.78
2019-05-30T11:38:52.378Z,3.25
2019-05-30T11:41:23.928Z,4.15
2019-05-30T11:43:55.643Z,5.50
2019-05-30T11:46:25.985Z,4.30
2019-05-30T11:48:57.875Z,2.83
2019-05-30T11:51:28.357Z,3.30
2019-05-30T11:53:58.865Z,2.95
2019-05-30T11:56:29.304Z,4.60
2019-05-30T11:59:00.195Z,3.98
2019-05-30T12:01:31.986Z,3.87
2019-05-30T12:04:02.661Z,3.33
2019-05-30T12:06:33.026Z,3.70
2019-05-30T12:09:04.459Z,4.33
2019-05-30T12:11:34.943Z,3.85
2019-05-30T12:14:05.396Z,4.28
2019-05-30T12:16:35.877Z,3.83
2019-05-30T12:19:06.796Z,3.80
2019-05-30T12:21:37.075Z,4.15
2019-05-30T12:24:07.388Z,3.02
2019-05-30T12:26:38.045Z,2.92
2019-05-30T12:29:08.799Z,2.90
2019-05-30T12:31:39.675Z,3.02
2019-05-30T12:34:10.002Z,2.95
2019-05-30T12:36:40.383Z,4.70
2019-05-30T12:39:10.963Z,3.65
2019-05-30T12:41:41.304Z,3.65
2019-05-30T12:44:11.589Z,5.40
2019-05-30T12:46:42.326Z,5.22
2019-05-30T12:49:12.698Z,3.85
2019-05-30T12:51:43.079Z,2.85
2019-05-30T12:54:13.812Z,3.42
2019-05-30T12:56:44.252Z,2.77
2019-05-30T12:59:15.033Z,2.85
2019-05-30T13:01:45.324Z,4.28
2019-05-30T13:04:15.618Z,3.47
2019-05-30T13:06:46.361Z,4.03
2019-05-30T13:09:16.641Z,3.17
2019-05-30T13:11:47.415Z,3.17
2019-05-30T13:14:18.050Z,4.83
2019-05-30T13:16:48.704Z,2.92
2019-05-30T13:19:18.972Z,3.27
2019-05-30T13:21:49.681Z,4.03
2019-05-30T13:24:20.345Z,3.08
2019-05-30T13:26:50.656Z,3.42
2019-05-30T13:29:21.314Z,3.67
2019-05-30T13:31:51.638Z,4.65
2019-05-30T13:34:22.266Z,3.67
2019-05-30T13:36:52.831Z,4.55
2019-05-30T13:39:23.108Z,3.50
2019-05-30T13:41:53.461Z,3.25
2019-05-30T13:44:23.860Z,3.77
2019-05-30T13:46:54.148Z,5.10
2019-05-30T13:49:24.864Z,2.80
2019-05-30T13:51:55.738Z,2.80
2019-05-30T13:54:26.065Z,2.70
2019-05-30T13:56:56.487Z,3.40
2019-05-30T13:59:27.144Z,3.25
2019-05-30T14:01:57.436Z,3.27
2019-05-30T14:04:28.063Z,3.22
2019-05-30T14:06:58.393Z,2.80
2019-05-30T14:09:29.216Z,4.37
2019-05-30T14:12:00.391Z,3.42
2019-05-30T14:14:30.694Z,2.80
2019-05-30T14:17:01.129Z,2.80
2019-05-30T14:19:31.714Z,2.95
2019-05-30T14:22:03.201Z,3.92
2019-05-30T14:24:34.165Z,3.05
2019-05-30T14:27:05.450Z,2.27
2019-05-30T14:29:35.850Z,3.10
2019-05-30T14:32:06.149Z,2.70
2019-05-30T14:34:36.788Z,3.52
2019-05-30T14:37:08.406Z,3.30
2019-05-30T14:39:39.148Z,4.85
2019-05-30T14:42:09.615Z,3.80
2019-05-30T14:44:39.901Z,3.37
2019-05-30T14:47:12.484Z,3.02
2019-05-30T14:49:42.843Z,3.00
2019-05-30T14:52:13.379Z,3.47
2019-05-30T14:54:44.046Z,3.08
2019-05-30T14:57:14.524Z,3.62
2019-05-30T14:59:44.913Z,3.42
2019-05-30T15:02:15.600Z,2.95
2019-05-30T15:04:46.281Z,3.80
2019-05-30T15:07:16.772Z,3.47
2019-05-30T15:09:47.039Z,3.25
2019-05-30T15:12:17.377Z,3.92
2019-05-30T15:14:48.017Z,3.35
2019-05-30T15:17:18.462Z,2.85
2019-05-30T15:19:49.052Z,3.00
2019-05-30T15:22:19.755Z,3.22
2019-05-30T15:24:50.489Z,2.90
2019-05-30T15:27:21.006Z,4.33
2019-05-30T15:29:51.656Z,3.42
2019-05-30T15:32:22.431Z,3.77
2019-05-30T15:34:52.829Z,4.58
2019-05-30T15:37:23.221Z,7.72
2019-05-30T15:39:53.856Z,3.22
2019-05-30T15:42:24.150Z,3.70
2019-05-30T15:44:54.497Z,3.15
2019-05-30T15:47:25.128Z,3.77
2019-05-30T15:49:55.614Z,3.00
2019-05-30T15:52:25.930Z,2.70
2019-05-30T15:54:56.566Z,2.72
2019-05-30T15:57:27.148Z,3.15
2019-05-30T15:59:57.524Z,3.85
2019-05-30T16:02:28.274Z,3.20
2019-05-30T16:04:59.006Z,3.12
2019-05-30T16:07:29.273Z,3.05
2019-05-30T16:09:59.650Z,3.92
2019-05-30T16:12:30.065Z,3.45
2019-05-30T16:15:00.564Z,3.87
2019-05-30T16:17:31.033Z,3.65
2019-05-30T16:20:01.416Z,4.25
2019-05-30T16:22:32.208Z,3.37
2019-05-30T16:25:02.982Z,3.33
2019-05-30T16:27:34.388Z,3.83
2019-05-30T16:30:05.539Z,5.47
2019-05-30T16:32:36.243Z,4.12
2019-05-30T16:35:07.399Z,3.52
2019-05-30T16:37:37.720Z,3.55
2019-05-30T16:40:09.345Z,3.87
2019-05-30T16:42:39.670Z,4.65
2019-05-30T16:45:11.141Z,3.12
2019-05-30T16:47:41.418Z,3.65
2019-05-30T16:50:14.498Z,3.75
2019-05-30T16:52:45.141Z,3.02
2019-05-30T16:55:17.193Z,3.25
2019-05-30T16:57:47.762Z,6.55
2019-05-30T17:00:19.930Z,3.75
2019-05-30T17:02:50.284Z,3.12
2019-05-30T17:05:20.973Z,4.13
2019-05-30T17:07:51.448Z,3.27
2019-05-30T17:10:28.851Z,3.20
2019-05-30T17:12:53.868Z,4.10
2019-05-30T17:15:25.970Z,3.57
2019-05-30T17:17:56.490Z,3.77
2019-05-30T17:20:27.156Z,4.10
2019-05-30T17:22:57.466Z,4.17
2019-05-30T17:25:27.784Z,3.53
2019-05-30T17:27:59.036Z,3.23
2019-05-30T17:30:29.825Z,3.33
2019-05-30T17:33:00.117Z,3.63
2019-05-30T17:35:30.782Z,3.77
2019-05-30T17:38:01.284Z,3.60
2019-05-30T17:40:44.151Z,4.10
2019-05-30T17:43:04.109Z,3.90
2019-05-30T17:45:34.746Z,3.53
2019-05-30T17:48:16.029Z,4.07
2019-05-30T17:50:37.363Z,4.50
2019-05-30T17:53:08.152Z,4.93
2019-05-30T17:55:38.520Z,5.63
2019-05-30T17:58:10.379Z,3.87
2019-05-30T18:00:41.263Z,4.53
2019-05-30T18:03:11.596Z,5.00
2019-05-30T18:05:41.978Z,4.00
2019-05-30T18:08:12.380Z,3.90
2019-05-30T18:10:53.199Z,5.87
2019-05-30T18:13:14.650Z,5.23
2019-05-30T18:15:45.366Z,4.97
2019-05-30T18:18:15.926Z,5.23
2019-05-30T18:20:48.803Z,4.27
2019-05-30T18:23:18.727Z,4.13
2019-05-30T18:25:49.225Z,4.43
2019-05-30T18:28:21.484Z,4.17
2019-05-30T18:30:53.832Z,4.80
2019-05-30T18:33:24.234Z,3.97
2019-05-30T18:35:55.138Z,4.43
2019-05-30T18:38:26.342Z,4.97
2019-05-30T18:41:10.185Z,5.00
2019-05-30T18:43:29.185Z,6.80
2019-05-30T18:45:59.812Z,5.43
2019-05-30T18:48:31.433Z,6.03
2019-05-30T18:51:02.687Z,5.17
2019-05-30T18:53:33.071Z,4.70
2019-05-30T18:56:03.584Z,5.37
2019-05-30T18:58:34.058Z,8.10
2019-05-30T19:01:04.794Z,6.37
2019-05-30T19:03:37.114Z,7.50
2019-05-30T19:06:08.703Z,6.17
2019-05-30T19:08:39.055Z,4.97
2019-05-30T19:11:09.784Z,5.20
2019-05-30T19:13:40.635Z,4.67
2019-05-30T19:16:10.947Z,4.37
2019-05-30T19:18:41.342Z,4.37
2019-05-30T19:21:12.150Z,4.43
2019-05-30T19:23:42.453Z,3.87
2019-05-30T19:26:13.278Z,4.00
2019-05-30T19:28:43.548Z,4.30
2019-05-30T19:31:14.171Z,4.10
2019-05-30T19:33:44.909Z,4.73
2019-05-30T19:36:15.373Z,4.47
2019-05-30T19:38:45.709Z,4.23
2019-05-30T19:41:16.399Z,4.20
2019-05-30T19:43:46.677Z,5.87
2019-05-30T19:46:17.046Z,3.90
2019-05-30T19:48:47.763Z,4.40
2019-05-30T19:51:20.966Z,3.63
2019-05-30T19:53:50.245Z,4.30
2019-05-30T19:56:20.848Z,4.60
2019-05-30T19:58:51.340Z,4.40
2019-05-30T20:01:21.739Z,3.80
2019-05-30T20:03:52.114Z,3.97
2019-05-30T20:06:24.862Z,4.47
2019-05-30T20:08:55.936Z,4.43
2019-05-30T20:11:27.067Z,4.23
2019-05-30T20:13:57.681Z,4.50
2019-05-30T20:16:27.947Z,4.40
2019-05-30T20:18:58.332Z,4.37
2019-05-30T20:21:29.104Z,4.37
2019-05-30T20:23:59.777Z,3.83
2019-05-30T20:26:30.175Z,4.83
2019-05-30T20:29:00.659Z,4.00
2019-05-30T20:31:31.324Z,4.30
2019-05-30T20:34:01.699Z,3.50
2019-05-30T20:36:31.979Z,4.43
2019-05-30T20:39:02.592Z,4.43
2019-05-30T20:41:33.347Z,4.30
2019-05-30T20:44:03.657Z,3.77
2019-05-30T20:46:34.828Z,4.67
2019-05-30T20:49:06.083Z,3.77
2019-05-30T20:51:37.213Z,4.10
2019-05-30T20:54:08.818Z,4.53
2019-05-30T20:56:39.563Z,3.87
2019-05-30T20:59:10.537Z,3.93
2019-05-30T21:01:41.780Z,4.10
2019-05-30T21:04:13.020Z,4.93
2019-05-30T21:06:44.325Z,4.43
2019-05-30T21:09:28.573Z,5.00
2019-05-30T21:11:48.463Z,3.87
2019-05-30T21:14:20.531Z,5.23
2019-05-30T21:16:52.940Z,4.93
2019-05-30T21:19:23.545Z,4.63
2019-05-30T21:21:53.888Z,4.20
2019-05-30T21:24:25.607Z,4.17
2019-05-30T21:26:56.224Z,4.47
2019-05-30T21:29:26.598Z,4.13
2019-05-30T21:31:57.302Z,4.67
2019-05-30T21:34:28.848Z,4.23
2019-05-30T21:36:59.737Z,5.00
2019-05-30T21:39:30.513Z,3.97
2019-05-30T21:42:00.838Z,4.13
2019-05-30T21:44:31.528Z,4.80
2019-05-30T21:47:02.759Z,4.97
2019-05-30T21:49:33.052Z,5.13
2019-05-30T21:52:03.895Z,5.30
2019-05-30T21:54:34.665Z,4.50
2019-05-30T21:57:05.005Z,5.03
2019-05-30T21:59:35.537Z,6.40
2019-05-30T22:02:06.256Z,6.07
2019-05-30T22:04:36.524Z,5.43
2019-05-30T22:07:07.109Z,5.53
2019-05-30T22:09:37.408Z,6.17
2019-05-30T22:12:08.321Z,5.67
2019-05-30T22:14:38.892Z,6.00
2019-05-30T22:17:09.174Z,7.40
2019-05-30T22:19:39.645Z,5.53
2019-05-30T22:22:10.420Z,6.67
2019-05-30T22:24:42.108Z,5.90
2019-05-30T22:27:12.639Z,7.73
2019-05-30T22:29:44.301Z,6.77
2019-05-30T22:32:15.652Z,6.80
2019-05-30T22:34:46.646Z,6.17
2019-05-30T22:37:17.245Z,7.10
2019-05-30T22:39:48.830Z,9.67
2019-05-30T22:42:19.554Z,19.97
2019-05-30T22:44:50.201Z,13.93
2019-05-30T22:47:20.659Z,9.40
2019-05-30T22:49:52.834Z,9.43
2019-05-30T22:52:23.369Z,10.80
2019-05-30T22:54:53.644Z,8.73
2019-05-30T22:57:24.187Z,11.83
2019-05-30T22:59:55.515Z,16.80
2019-05-30T23:02:25.791Z,31.63
2019-05-30T23:04:56.436Z,10.27
2019-05-30T23:07:27.101Z,9.67
2019-05-30T23:09:57.629Z,10.03
2019-05-30T23:12:27.944Z,10.47
2019-05-30T23:14:58.252Z,22.67
2019-05-30T23:17:29.045Z,18.80
2019-05-30T23:19:59.568Z,10.17
2019-05-30T23:22:29.900Z,10.53
2019-05-30T23:25:00.664Z,14.43
2019-05-30T23:27:31.237Z,12.40
2019-05-30T23:30:01.554Z,10.23
2019-05-30T23:32:32.121Z,13.10
2019-05-30T23:35:02.912Z,12.23
2019-05-30T23:37:33.264Z,12.53
2019-05-30T23:40:04.136Z,13.17
2019-05-30T23:42:34.583Z,13.43
2019-05-30T23:45:05.567Z,13.27
2019-05-30T23:47:36.355Z,12.47
2019-05-30T23:50:08.097Z,13.83
2019-05-30T23:52:38.724Z,12.47
2019-05-30T23:55:09.519Z,12.63
2019-05-30T23:57:39.802Z,17.40
